createdAt,value
2018-08-28T00:02:12.685Z,3.27
2018-08-28T00:05:16.628Z,3.50
2018-08-28T00:08:20.834Z,3.10
2018-08-28T00:11:24.760Z,3.30
2018-08-28T00:14:29.068Z,3.23
2018-08-28T00:17:32.948Z,4.37
2018-08-28T00:20:36.789Z,3.33
2018-08-28T00:23:40.767Z,3.07
2018-08-28T00:26:44.657Z,3.27
2018-08-28T00:29:48.853Z,3.23
2018-08-28T00:32:59.242Z,3.37
2018-08-28T00:36:03.640Z,3.20
2018-08-28T00:39:07.587Z,2.63
2018-08-28T00:42:11.503Z,3.80
2018-08-28T00:45:15.399Z,2.70
2018-08-28T00:48:19.290Z,2.80
2018-08-28T00:51:23.235Z,3.40
2018-08-28T00:54:27.137Z,3.00
2018-08-28T00:57:31.055Z,2.73
2018-08-28T01:00:35.083Z,2.80
2018-08-28T01:03:39.427Z,3.43
2018-08-28T01:06:43.382Z,2.93
2018-08-28T01:09:47.931Z,3.50
2018-08-28T01:12:52.190Z,3.57
2018-08-28T01:15:56.507Z,2.70
2018-08-28T01:19:00.903Z,3.50
2018-08-28T01:22:05.525Z,3.47
2018-08-28T01:25:09.919Z,3.03
2018-08-28T01:28:14.269Z,3.30
2018-08-28T01:31:18.700Z,3.43
2018-08-28T01:34:23.048Z,3.10
2018-08-28T01:37:27.219Z,2.93
2018-08-28T01:40:31.761Z,2.90
2018-08-28T01:43:35.719Z,3.70
2018-08-28T01:46:39.633Z,2.90
2018-08-28T01:49:43.518Z,2.77
2018-08-28T01:52:47.798Z,3.07
2018-08-28T01:55:52.083Z,3.10
2018-08-28T01:58:56.197Z,3.23
2018-08-28T02:02:00.556Z,2.87
2018-08-28T02:05:04.899Z,3.63
2018-08-28T02:08:09.189Z,3.17
2018-08-28T02:11:13.375Z,3.73
2018-08-28T02:14:17.556Z,3.00
2018-08-28T02:17:21.955Z,3.00
2018-08-28T02:20:26.238Z,3.60
2018-08-28T02:23:30.434Z,2.77
2018-08-28T02:26:34.994Z,3.57
2018-08-28T02:29:39.379Z,3.50
2018-08-28T02:32:43.738Z,3.83
2018-08-28T02:35:47.932Z,4.70
2018-08-28T02:38:52.377Z,4.57
2018-08-28T02:41:56.691Z,4.80
2018-08-28T02:45:00.848Z,4.37
2018-08-28T02:48:05.240Z,3.97
2018-08-28T02:51:09.655Z,3.60
2018-08-28T02:54:14.042Z,4.00
2018-08-28T02:57:18.311Z,3.70
2018-08-28T03:00:22.436Z,3.63
2018-08-28T03:03:26.590Z,3.90
2018-08-28T03:06:30.978Z,4.00
2018-08-28T03:09:35.270Z,3.70
2018-08-28T03:12:39.749Z,3.70
2018-08-28T03:15:44.024Z,4.53
2018-08-28T03:18:48.249Z,3.80
2018-08-28T03:21:52.629Z,4.50
2018-08-28T03:24:56.877Z,3.50
2018-08-28T03:28:01.343Z,3.73
2018-08-28T03:31:05.718Z,3.50
2018-08-28T03:34:10.181Z,3.73
2018-08-28T03:37:14.538Z,3.53
2018-08-28T03:40:18.785Z,3.37
2018-08-28T03:43:22.994Z,3.30
2018-08-28T03:46:27.328Z,3.27
2018-08-28T03:49:31.679Z,3.53
2018-08-28T03:52:36.035Z,3.67
2018-08-28T03:55:40.425Z,3.77
2018-08-28T03:58:44.748Z,3.47
2018-08-28T04:01:50.102Z,3.60
2018-08-28T04:04:54.326Z,3.87
2018-08-28T04:07:58.773Z,3.10
2018-08-28T04:11:02.949Z,3.40
2018-08-28T04:14:07.564Z,3.40
2018-08-28T04:17:11.865Z,3.50
2018-08-28T04:20:16.407Z,3.37
2018-08-28T04:23:20.509Z,3.40
2018-08-28T04:26:24.786Z,3.97
2018-08-28T04:29:29.207Z,3.40
2018-08-28T04:32:33.584Z,3.83
2018-08-28T04:35:37.665Z,3.07
2018-08-28T04:38:41.753Z,3.80
2018-08-28T04:41:46.138Z,3.90
2018-08-28T04:44:50.408Z,4.00
2018-08-28T04:47:54.762Z,3.53
2018-08-28T04:50:59.106Z,4.17
2018-08-28T04:54:03.294Z,4.33
2018-08-28T04:57:07.602Z,3.97
2018-08-28T05:00:12.164Z,3.57
2018-08-28T05:03:16.425Z,3.90
2018-08-28T05:06:20.800Z,3.60
2018-08-28T05:09:25.297Z,3.90
2018-08-28T05:12:29.747Z,4.27
2018-08-28T05:15:34.024Z,3.70
2018-08-28T05:18:38.377Z,4.27
2018-08-28T05:21:43.010Z,3.83
2018-08-28T05:24:47.401Z,4.70
2018-08-28T05:27:51.690Z,3.30
2018-08-28T05:30:55.942Z,3.57
2018-08-28T05:34:00.228Z,2.77
2018-08-28T05:37:04.845Z,3.90
2018-08-28T05:40:09.096Z,4.03
2018-08-28T05:43:13.006Z,4.27
2018-08-28T05:46:16.911Z,3.83
2018-08-28T05:49:20.834Z,4.60
2018-08-28T05:52:24.787Z,4.00
2018-08-28T05:55:28.926Z,4.20
2018-08-28T05:58:32.817Z,4.27
2018-08-28T06:01:36.748Z,4.47
2018-08-28T06:04:40.650Z,4.50
2018-08-28T06:07:44.524Z,4.43
2018-08-28T06:10:48.482Z,4.60
2018-08-28T06:13:53.512Z,4.23
2018-08-28T06:16:57.482Z,4.43
2018-08-28T06:20:01.406Z,4.10
2018-08-28T06:23:06.746Z,4.40
2018-08-28T06:26:11.486Z,5.00
2018-08-28T06:29:15.420Z,4.70
2018-08-28T06:32:19.300Z,5.00
2018-08-28T06:35:23.636Z,4.03
2018-08-28T06:38:27.591Z,4.50
2018-08-28T06:41:31.537Z,4.70
2018-08-28T06:44:35.451Z,4.20
2018-08-28T06:47:39.381Z,4.30
2018-08-28T06:50:44.038Z,4.40
2018-08-28T06:53:48.016Z,4.07
2018-08-28T06:56:52.030Z,4.73
2018-08-28T06:59:56.301Z,5.50
2018-08-28T07:03:00.222Z,5.23
2018-08-28T07:06:04.253Z,4.30
2018-08-28T07:09:08.745Z,4.50
2018-08-28T07:12:12.652Z,4.53
2018-08-28T07:15:16.509Z,4.47
2018-08-28T07:18:20.512Z,4.43
2018-08-28T07:21:24.445Z,4.57
2018-08-28T07:24:28.647Z,3.77
2018-08-28T07:27:32.572Z,4.70
2018-08-28T07:30:36.492Z,4.13
2018-08-28T07:33:40.404Z,4.53
2018-08-28T07:36:44.670Z,4.37
2018-08-28T07:39:48.602Z,4.47
2018-08-28T07:42:52.815Z,3.60
2018-08-28T07:45:56.710Z,3.55
2018-08-28T07:49:00.645Z,4.65
2018-08-28T07:52:05.472Z,5.28
2018-08-28T07:55:09.438Z,4.17
2018-08-28T07:58:13.387Z,4.42
2018-08-28T08:01:17.404Z,4.20
2018-08-28T08:04:21.503Z,4.85
2018-08-28T08:07:26.662Z,5.35
2018-08-28T08:10:30.672Z,5.53
2018-08-28T08:13:34.609Z,5.78
2018-08-28T08:16:38.460Z,5.58
2018-08-28T08:19:42.374Z,5.35
2018-08-28T08:22:46.301Z,4.95
2018-08-28T08:25:50.297Z,5.05
2018-08-28T08:28:54.207Z,5.33
2018-08-28T08:31:58.147Z,5.90
2018-08-28T08:35:02.169Z,6.17
2018-08-28T08:38:06.573Z,5.92
2018-08-28T08:41:10.577Z,6.40
2018-08-28T08:44:15.190Z,5.03
2018-08-28T08:47:19.145Z,5.50
2018-08-28T08:50:23.060Z,6.08
2018-08-28T08:53:27.155Z,5.95
2018-08-28T08:56:31.774Z,4.80
2018-08-28T08:59:35.661Z,5.12
2018-08-28T09:02:39.595Z,5.20
2018-08-28T09:05:43.537Z,4.63
2018-08-28T09:08:47.468Z,4.90
2018-08-28T09:11:51.350Z,5.50
2018-08-28T09:14:55.610Z,4.83
2018-08-28T09:18:00.266Z,4.40
2018-08-28T09:21:04.602Z,4.35
2018-08-28T09:24:08.520Z,4.60
2018-08-28T09:27:12.527Z,4.60
2018-08-28T09:30:16.490Z,4.28
2018-08-28T09:33:20.802Z,3.35
2018-08-28T09:36:25.078Z,4.10
2018-08-28T09:39:28.953Z,4.20
2018-08-28T09:42:32.888Z,3.30
2018-08-28T09:45:36.813Z,3.10
2018-08-28T09:48:40.775Z,3.42
2018-08-28T09:51:44.774Z,3.55
2018-08-28T09:54:48.795Z,2.70
2018-08-28T09:57:52.749Z,3.45
2018-08-28T10:01:01.967Z,2.80
2018-08-28T10:04:06.652Z,2.87
2018-08-28T10:07:10.531Z,2.40
2018-08-28T10:10:14.345Z,2.80
2018-08-28T10:13:18.656Z,2.40
2018-08-28T10:16:22.545Z,2.93
2018-08-28T10:19:27.025Z,2.87
2018-08-28T10:22:31.054Z,2.60
2018-08-28T10:25:35.349Z,2.57
2018-08-28T10:28:39.839Z,2.87
2018-08-28T10:31:43.779Z,2.57
2018-08-28T10:34:47.736Z,2.77
2018-08-28T10:37:51.645Z,3.47
2018-08-28T10:40:55.633Z,2.90
2018-08-28T10:43:59.563Z,3.80
2018-08-28T10:47:04.027Z,2.73
2018-08-28T10:50:07.968Z,2.77
2018-08-28T10:53:11.954Z,2.90
2018-08-28T10:56:15.897Z,2.97
2018-08-28T10:59:19.819Z,3.53
2018-08-28T11:02:23.889Z,3.30
2018-08-28T11:05:27.773Z,3.40
2018-08-28T11:08:32.619Z,3.03
2018-08-28T11:11:36.580Z,2.93
2018-08-28T11:14:40.641Z,2.47
2018-08-28T11:17:44.592Z,2.77
2018-08-28T11:20:48.582Z,3.00
2018-08-28T11:23:52.523Z,3.20
2018-08-28T11:26:56.634Z,2.40
2018-08-28T11:30:00.645Z,2.50
2018-08-28T11:33:04.629Z,2.80
2018-08-28T11:36:08.633Z,3.17
2018-08-28T11:39:12.876Z,3.20
2018-08-28T11:42:16.932Z,2.80
2018-08-28T11:45:20.963Z,3.17
2018-08-28T11:48:24.973Z,2.80
2018-08-28T11:51:29.177Z,2.23
2018-08-28T11:54:33.390Z,3.00
2018-08-28T11:57:37.263Z,3.07
2018-08-28T12:00:41.307Z,2.83
2018-08-28T12:03:45.361Z,3.27
2018-08-28T12:06:49.344Z,3.00
2018-08-28T12:09:53.563Z,3.47
2018-08-28T12:12:57.864Z,3.93
2018-08-28T12:16:02.017Z,3.30
2018-08-28T12:19:06.356Z,3.27
2018-08-28T12:22:11.664Z,2.90
2018-08-28T12:25:15.583Z,3.10
2018-08-28T12:28:19.500Z,2.90
2018-08-28T12:31:23.438Z,3.40
2018-08-28T12:34:27.719Z,3.90
2018-08-28T12:37:31.839Z,3.37
2018-08-28T12:40:35.755Z,3.80
2018-08-28T12:43:39.804Z,3.90
2018-08-28T12:46:44.205Z,3.60
2018-08-28T12:49:48.144Z,4.03
2018-08-28T12:52:52.385Z,3.60
2018-08-28T12:55:56.797Z,3.73
2018-08-28T12:59:00.736Z,4.40
2018-08-28T13:02:04.940Z,3.97
2018-08-28T13:05:09.338Z,3.63
2018-08-28T13:08:13.378Z,3.73
2018-08-28T13:11:17.332Z,4.20
2018-08-28T13:14:21.194Z,3.97
2018-08-28T13:17:25.553Z,4.67
2018-08-28T13:20:29.489Z,3.67
2018-08-28T13:23:33.797Z,3.90
2018-08-28T13:26:38.309Z,4.07
2018-08-28T13:29:42.431Z,4.07
2018-08-28T13:32:46.360Z,4.27
2018-08-28T13:35:50.617Z,3.90
2018-08-28T13:38:55.160Z,4.20
2018-08-28T13:41:59.467Z,4.70
2018-08-28T13:45:04.484Z,3.97
2018-08-28T13:48:08.504Z,4.10
2018-08-28T13:51:12.745Z,4.03
2018-08-28T13:54:16.796Z,4.00
2018-08-28T13:57:20.601Z,3.73
2018-08-28T14:00:25.081Z,4.77
2018-08-28T14:03:29.467Z,4.10
2018-08-28T14:06:33.543Z,4.70
2018-08-28T14:09:37.630Z,4.03
2018-08-28T14:12:42.461Z,4.57
2018-08-28T14:15:46.482Z,4.93
2018-08-28T14:18:50.485Z,5.57
2018-08-28T14:21:54.460Z,5.03
2018-08-28T14:24:58.810Z,4.20
2018-08-28T14:28:03.022Z,4.80
2018-08-28T14:31:07.330Z,4.60
2018-08-28T14:34:11.250Z,4.10
2018-08-28T14:37:15.570Z,4.47
2018-08-28T14:40:19.539Z,4.67
2018-08-28T14:43:23.453Z,4.10
2018-08-28T14:46:27.714Z,4.07
2018-08-28T14:49:31.911Z,4.30
2018-08-28T14:52:36.252Z,4.73
2018-08-28T14:55:40.429Z,4.60
2018-08-28T14:58:44.951Z,5.73
2018-08-28T15:01:49.414Z,4.60
2018-08-28T15:04:53.291Z,4.37
2018-08-28T15:07:57.293Z,4.63
2018-08-28T15:11:01.280Z,4.60
2018-08-28T15:14:05.362Z,4.50
2018-08-28T15:17:09.446Z,4.10
2018-08-28T15:20:13.328Z,3.70
2018-08-28T15:23:17.280Z,4.60
2018-08-28T15:26:21.313Z,4.47
2018-08-28T15:29:25.315Z,4.33
2018-08-28T15:32:29.887Z,4.03
2018-08-28T15:35:34.391Z,4.67
2018-08-28T15:38:38.903Z,4.00
2018-08-28T15:41:43.417Z,4.50
2018-08-28T15:44:47.364Z,4.60
2018-08-28T15:47:51.397Z,4.63
2018-08-28T15:50:55.390Z,5.03
2018-08-28T15:53:59.929Z,4.20
2018-08-28T15:57:04.000Z,4.60
2018-08-28T16:00:08.001Z,4.70
2018-08-28T16:03:11.928Z,4.40
2018-08-28T16:06:15.956Z,4.43
2018-08-28T16:09:19.868Z,4.70
2018-08-28T16:12:23.845Z,4.40
2018-08-28T16:15:27.753Z,4.10
2018-08-28T16:18:31.671Z,4.20
2018-08-28T16:21:46.353Z,4.23
2018-08-28T16:24:50.289Z,5.00
2018-08-28T16:27:54.299Z,4.57
2018-08-28T16:30:58.331Z,4.10
2018-08-28T16:34:02.371Z,4.33
2018-08-28T16:37:06.458Z,5.17
2018-08-28T16:40:10.411Z,4.00
2018-08-28T16:43:14.426Z,4.37
2018-08-28T16:46:18.405Z,4.37
2018-08-28T16:49:22.385Z,4.83
2018-08-28T16:52:26.299Z,4.20
2018-08-28T16:55:30.175Z,3.70
2018-08-28T16:58:34.341Z,4.20
2018-08-28T17:01:38.352Z,4.13
2018-08-28T17:04:42.229Z,3.90
2018-08-28T17:07:46.163Z,3.70
2018-08-28T17:10:50.117Z,4.37
2018-08-28T17:13:54.101Z,4.13
2018-08-28T17:16:58.451Z,3.60
2018-08-28T17:20:02.943Z,4.50
2018-08-28T17:23:06.916Z,4.60
2018-08-28T17:26:11.403Z,3.97
2018-08-28T17:29:15.848Z,4.47
2018-08-28T17:32:20.041Z,4.10
2018-08-28T17:35:24.291Z,4.20
2018-08-28T17:38:28.820Z,4.57
2018-08-28T17:41:33.103Z,4.67
2018-08-28T17:44:37.617Z,4.13
2018-08-28T17:47:41.892Z,5.03
2018-08-28T17:50:45.823Z,4.30
2018-08-28T17:53:50.401Z,4.70
2018-08-28T17:56:54.900Z,5.10
2018-08-28T17:59:59.294Z,4.50
2018-08-28T18:03:03.570Z,4.77
2018-08-28T18:06:07.924Z,5.77
2018-08-28T18:09:12.326Z,5.77
2018-08-28T18:12:16.893Z,4.87
2018-08-28T18:15:21.448Z,6.50
2018-08-28T18:18:25.891Z,5.00
2018-08-28T18:21:30.361Z,5.10
2018-08-28T18:24:34.611Z,5.60
2018-08-28T18:27:38.920Z,4.87
2018-08-28T18:30:43.248Z,5.30
2018-08-28T18:33:47.711Z,4.90
2018-08-28T18:36:52.240Z,4.53
2018-08-28T18:39:56.567Z,4.93
2018-08-28T18:43:00.941Z,5.07
2018-08-28T18:46:05.431Z,4.90
2018-08-28T18:49:10.011Z,5.20
2018-08-28T18:52:14.300Z,5.10
2018-08-28T18:55:18.719Z,5.10
2018-08-28T18:58:23.081Z,4.90
2018-08-28T19:01:27.414Z,4.43
2018-08-28T19:04:31.338Z,5.53
2018-08-28T19:07:35.544Z,5.90
2018-08-28T19:10:39.927Z,5.67
2018-08-28T19:13:44.880Z,5.97
2018-08-28T19:16:49.226Z,5.17
2018-08-28T19:19:53.544Z,4.87
2018-08-28T19:22:57.871Z,5.03
2018-08-28T19:26:01.941Z,5.00
2018-08-28T19:29:05.846Z,5.60
2018-08-28T19:32:09.875Z,5.80
2018-08-28T19:35:13.865Z,5.33
2018-08-28T19:38:17.754Z,5.47
2018-08-28T19:41:21.704Z,5.50
2018-08-28T19:44:25.723Z,4.80
2018-08-28T19:47:29.649Z,5.00
2018-08-28T19:50:33.570Z,5.17
2018-08-28T19:53:38.149Z,4.97
2018-08-28T19:56:42.782Z,5.93
2018-08-28T19:59:53.772Z,4.80
2018-08-28T20:02:58.114Z,4.70
2018-08-28T20:06:03.130Z,5.23
2018-08-28T20:09:07.402Z,5.30
2018-08-28T20:12:11.727Z,6.13
2018-08-28T20:15:16.028Z,6.03
2018-08-28T20:18:20.359Z,5.37
2018-08-28T20:21:24.702Z,5.70
2018-08-28T20:24:28.980Z,5.10
2018-08-28T20:27:33.258Z,5.57
2018-08-28T20:30:37.210Z,5.20
2018-08-28T20:33:41.134Z,5.43
2018-08-28T20:36:45.579Z,4.90
2018-08-28T20:39:49.909Z,6.10
2018-08-28T20:42:54.017Z,4.60
2018-08-28T20:45:58.480Z,5.00
2018-08-28T20:49:02.883Z,5.70
2018-08-28T20:52:07.173Z,5.27
2018-08-28T20:55:11.403Z,5.27
2018-08-28T20:58:15.583Z,4.40
2018-08-28T21:01:19.553Z,5.27
2018-08-28T21:04:23.856Z,5.20
2018-08-28T21:07:28.189Z,5.00
2018-08-28T21:10:32.526Z,5.07
2018-08-28T21:13:36.472Z,5.10
2018-08-28T21:16:40.346Z,4.53
2018-08-28T21:19:44.248Z,5.07
2018-08-28T21:22:48.182Z,4.97
2018-08-28T21:25:52.063Z,5.67
2018-08-28T21:28:56.477Z,5.00
2018-08-28T21:32:00.889Z,4.50
2018-08-28T21:35:05.655Z,5.97
2018-08-28T21:38:09.999Z,4.57
2018-08-28T21:41:14.190Z,4.70
2018-08-28T21:44:18.135Z,4.30
2018-08-28T21:47:22.472Z,4.97
2018-08-28T21:50:26.904Z,4.90
2018-08-28T21:53:31.068Z,4.67
2018-08-28T21:56:35.526Z,4.27
2018-08-28T21:59:40.048Z,5.57
2018-08-28T22:02:44.373Z,4.80
2018-08-28T22:05:48.789Z,4.10
2018-08-28T22:08:53.187Z,4.47
2018-08-28T22:11:57.532Z,4.60
2018-08-28T22:15:01.811Z,4.50
2018-08-28T22:18:06.313Z,4.57
2018-08-28T22:21:10.736Z,3.93
2018-08-28T22:24:15.332Z,4.73
2018-08-28T22:27:19.625Z,4.80
2018-08-28T22:30:23.959Z,4.40
2018-08-28T22:33:28.364Z,4.67
2018-08-28T22:36:32.862Z,4.80
2018-08-28T22:39:37.236Z,4.80
2018-08-28T22:42:41.701Z,5.13
2018-08-28T22:45:46.163Z,4.60
2018-08-28T22:48:50.637Z,4.53
2018-08-28T22:51:54.541Z,4.57
2018-08-28T22:54:58.749Z,4.87
2018-08-28T22:58:02.689Z,5.10
2018-08-28T23:01:07.245Z,4.90
2018-08-28T23:04:11.646Z,5.20
2018-08-28T23:07:15.782Z,4.63
2018-08-28T23:10:19.932Z,4.90
2018-08-28T23:13:25.313Z,4.30
2018-08-28T23:16:29.196Z,4.40
2018-08-28T23:19:33.689Z,4.57
2018-08-28T23:22:37.563Z,4.60
2018-08-28T23:25:41.450Z,4.80
2018-08-28T23:28:45.362Z,4.80
2018-08-28T23:31:49.670Z,4.70
2018-08-28T23:34:53.594Z,3.90
2018-08-28T23:37:57.492Z,4.50
2018-08-28T23:41:01.771Z,4.57
2018-08-28T23:44:05.986Z,4.43
2018-08-28T23:47:09.893Z,4.13
2018-08-28T23:50:14.202Z,4.70
2018-08-28T23:53:18.734Z,4.80
2018-08-28T23:56:22.638Z,4.90
2018-08-28T23:59:26.566Z,4.60
